sensor_id;sensor_type;location;lat;lon;timestamp;temperature;humidity
74946;HTU21D;63509;45.250;38.102;2023-07-13T00:01:52;21.36;67.77
74946;HTU21D;63509;45.250;38.102;2023-07-13T00:04:24;21.34;67.82
74946;HTU21D;63509;45.250;38.102;2023-07-13T00:06:51;21.34;67.86
74946;HTU21D;63509;45.250;38.102;2023-07-13T00:09:18;21.33;67.85
74946;HTU21D;63509;45.250;38.102;2023-07-13T00:11:45;21.30;67.85
74946;HTU21D;63509;45.250;38.102;2023-07-13T00:14:13;21.25;67.87
74946;HTU21D;63509;45.250;38.102;2023-07-13T00:16:41;21.22;67.95
74946;HTU21D;63509;45.250;38.102;2023-07-13T00:19:10;21.20;67.98
74946;HTU21D;63509;45.250;38.102;2023-07-13T00:21:38;21.18;67.97
74946;HTU21D;63509;45.250;38.102;2023-07-13T00:24:05;21.14;68.04
74946;HTU21D;63509;45.250;38.102;2023-07-13T00:26:32;21.11;68.11
74946;HTU21D;63509;45.250;38.102;2023-07-13T00:28:58;21.10;68.12
74946;HTU21D;63509;45.250;38.102;2023-07-13T00:31:25;21.07;68.12
74946;HTU21D;63509;45.250;38.102;2023-07-13T00:33:51;21.03;68.17
74946;HTU21D;63509;45.250;38.102;2023-07-13T00:36:19;21.00;68.24
74946;HTU21D;63509;45.250;38.102;2023-07-13T00:38:45;20.96;67.89
74946;HTU21D;63509;45.250;38.102;2023-07-13T00:41:12;20.89;68.12
74946;HTU21D;63509;45.250;38.102;2023-07-13T00:43:40;20.84;68.29
74946;HTU21D;63509;45.250;38.102;2023-07-13T00:46:19;20.83;68.19
74946;HTU21D;63509;45.250;38.102;2023-07-13T00:48:47;20.80;68.30
74946;HTU21D;63509;45.250;38.102;2023-07-13T00:51:17;20.76;68.34
74946;HTU21D;63509;45.250;38.102;2023-07-13T00:53:45;20.75;68.44
74946;HTU21D;63509;45.250;38.102;2023-07-13T00:56:11;20.73;68.47
74946;HTU21D;63509;45.250;38.102;2023-07-13T00:58:38;20.75;68.51
74946;HTU21D;63509;45.250;38.102;2023-07-13T01:01:04;20.75;68.49
74946;HTU21D;63509;45.250;38.102;2023-07-13T01:03:30;20.71;68.50
74946;HTU21D;63509;45.250;38.102;2023-07-13T01:05:56;20.68;68.49
74946;HTU21D;63509;45.250;38.102;2023-07-13T01:08:23;20.62;68.56
74946;HTU21D;63509;45.250;38.102;2023-07-13T01:10:55;20.57;68.48
74946;HTU21D;63509;45.250;38.102;2023-07-13T01:13:22;20.54;68.61
74946;HTU21D;63509;45.250;38.102;2023-07-13T01:15:51;20.48;68.65
74946;HTU21D;63509;45.250;38.102;2023-07-13T01:18:24;20.46;68.71
74946;HTU21D;63509;45.250;38.102;2023-07-13T01:20:59;20.44;68.71
74946;HTU21D;63509;45.250;38.102;2023-07-13T01:23:27;20.41;68.76
74946;HTU21D;63509;45.250;38.102;2023-07-13T01:25:55;20.37;68.79
74946;HTU21D;63509;45.250;38.102;2023-07-13T01:28:23;20.36;68.88
74946;HTU21D;63509;45.250;38.102;2023-07-13T01:30:53;20.35;68.98
74946;HTU21D;63509;45.250;38.102;2023-07-13T01:33:20;20.40;69.02
74946;HTU21D;63509;45.250;38.102;2023-07-13T01:35:47;20.39;69.07
74946;HTU21D;63509;45.250;38.102;2023-07-13T01:38:20;20.44;69.04
74946;HTU21D;63509;45.250;38.102;2023-07-13T01:40:46;20.46;69.08
74946;HTU21D;63509;45.250;38.102;2023-07-13T01:43:13;20.46;69.07
74946;HTU21D;63509;45.250;38.102;2023-07-13T01:45:40;20.46;69.10
74946;HTU21D;63509;45.250;38.102;2023-07-13T01:48:06;20.45;69.11
74946;HTU21D;63509;45.250;38.102;2023-07-13T01:50:35;20.46;69.13
74946;HTU21D;63509;45.250;38.102;2023-07-13T01:53:02;20.46;69.10
74946;HTU21D;63509;45.250;38.102;2023-07-13T01:55:29;20.45;69.09
74946;HTU21D;63509;45.250;38.102;2023-07-13T01:57:55;20.41;69.12
74946;HTU21D;63509;45.250;38.102;2023-07-13T02:00:22;20.41;69.17
74946;HTU21D;63509;45.250;38.102;2023-07-13T02:02:48;20.40;69.22
74946;HTU21D;63509;45.250;38.102;2023-07-13T02:05:15;20.40;69.27
74946;HTU21D;63509;45.250;38.102;2023-07-13T02:07:41;20.41;69.27
74946;HTU21D;63509;45.250;38.102;2023-07-13T02:10:08;20.41;69.27
74946;HTU21D;63509;45.250;38.102;2023-07-13T02:12:35;20.41;69.26
74946;HTU21D;63509;45.250;38.102;2023-07-13T02:15:03;20.39;69.29
74946;HTU21D;63509;45.250;38.102;2023-07-13T02:17:30;20.39;69.33
74946;HTU21D;63509;45.250;38.102;2023-07-13T02:19:57;20.39;69.04
74946;HTU21D;63509;45.250;38.102;2023-07-13T02:22:24;20.35;69.28
74946;HTU21D;63509;45.250;38.102;2023-07-13T02:24:50;20.36;69.35
74946;HTU21D;63509;45.250;38.102;2023-07-13T02:27:18;20.37;69.38
74946;HTU21D;63509;45.250;38.102;2023-07-13T02:29:44;20.37;69.40
74946;HTU21D;63509;45.250;38.102;2023-07-13T02:32:10;20.37;69.42
74946;HTU21D;63509;45.250;38.102;2023-07-13T02:34:37;20.37;69.43
74946;HTU21D;63509;45.250;38.102;2023-07-13T02:37:04;20.36;69.42
74946;HTU21D;63509;45.250;38.102;2023-07-13T02:39:30;20.35;69.44
74946;HTU21D;63509;45.250;38.102;2023-07-13T02:41:59;20.35;69.42
74946;HTU21D;63509;45.250;38.102;2023-07-13T02:44:26;20.31;69.47
74946;HTU21D;63509;45.250;38.102;2023-07-13T02:46:53;20.29;69.54
74946;HTU21D;63509;45.250;38.102;2023-07-13T02:49:19;20.27;69.58
74946;HTU21D;63509;45.250;38.102;2023-07-13T02:51:45;20.26;69.62
74946;HTU21D;63509;45.250;38.102;2023-07-13T02:54:11;20.27;69.66
74946;HTU21D;63509;45.250;38.102;2023-07-13T02:56:40;20.25;69.68
74946;HTU21D;63509;45.250;38.102;2023-07-13T02:59:07;20.26;69.74
74946;HTU21D;63509;45.250;38.102;2023-07-13T03:01:33;20.26;69.79
74946;HTU21D;63509;45.250;38.102;2023-07-13T03:04:02;20.27;69.78
74946;HTU21D;63509;45.250;38.102;2023-07-13T03:06:32;20.27;69.82
74946;HTU21D;63509;45.250;38.102;2023-07-13T03:08:59;20.29;69.90
74946;HTU21D;63509;45.250;38.102;2023-07-13T03:11:31;20.32;69.92
74946;HTU21D;63509;45.250;38.102;2023-07-13T03:14:08;20.34;69.93
74946;HTU21D;63509;45.250;38.102;2023-07-13T03:16:37;20.39;69.94
74946;HTU21D;63509;45.250;38.102;2023-07-13T03:19:03;20.42;69.98
74946;HTU21D;63509;45.250;38.102;2023-07-13T03:21:30;20.44;70.00
74946;HTU21D;63509;45.250;38.102;2023-07-13T03:23:56;20.45;70.03
74946;HTU21D;63509;45.250;38.102;2023-07-13T03:26:22;20.48;70.06
74946;HTU21D;63509;45.250;38.102;2023-07-13T03:28:48;20.51;70.09
74946;HTU21D;63509;45.250;38.102;2023-07-13T03:31:21;20.56;70.10
74946;HTU21D;63509;45.250;38.102;2023-07-13T03:33:49;20.59;70.14
74946;HTU21D;63509;45.250;38.102;2023-07-13T03:36:19;20.65;70.12
74946;HTU21D;63509;45.250;38.102;2023-07-13T03:38:48;20.69;70.16
74946;HTU21D;63509;45.250;38.102;2023-07-13T03:41:18;20.74;70.18
74946;HTU21D;63509;45.250;38.102;2023-07-13T03:43:46;20.77;70.17
74946;HTU21D;63509;45.250;38.102;2023-07-13T03:46:16;20.83;70.23
74946;HTU21D;63509;45.250;38.102;2023-07-13T03:48:43;20.86;70.29
74946;HTU21D;63509;45.250;38.102;2023-07-13T03:51:12;20.94;70.44
74946;HTU21D;63509;45.250;38.102;2023-07-13T03:53:41;21.02;70.55
74946;HTU21D;63509;45.250;38.102;2023-07-13T03:56:09;21.09;70.70
74946;HTU21D;63509;45.250;38.102;2023-07-13T03:58:40;21.19;70.77
74946;HTU21D;63509;45.250;38.102;2023-07-13T04:01:15;21.30;71.04
74946;HTU21D;63509;45.250;38.102;2023-07-13T04:03:42;21.40;71.15
74946;HTU21D;63509;45.250;38.102;2023-07-13T04:06:15;21.53;71.10
74946;HTU21D;63509;45.250;38.102;2023-07-13T04:08:49;21.65;71.35
74946;HTU21D;63509;45.250;38.102;2023-07-13T04:11:17;21.79;71.45
74946;HTU21D;63509;45.250;38.102;2023-07-13T04:13:43;21.92;71.50
74946;HTU21D;63509;45.250;38.102;2023-07-13T04:16:11;22.06;71.65
74946;HTU21D;63509;45.250;38.102;2023-07-13T04:18:38;22.21;71.74
74946;HTU21D;63509;45.250;38.102;2023-07-13T04:21:04;22.35;71.80
74946;HTU21D;63509;45.250;38.102;2023-07-13T04:23:30;22.52;71.75
74946;HTU21D;63509;45.250;38.102;2023-07-13T04:25:56;22.66;71.68
74946;HTU21D;63509;45.250;38.102;2023-07-13T04:28:23;22.84;71.77
74946;HTU21D;63509;45.250;38.102;2023-07-13T04:30:50;23.00;71.77
74946;HTU21D;63509;45.250;38.102;2023-07-13T04:33:16;23.17;71.96
74946;HTU21D;63509;45.250;38.102;2023-07-13T04:35:43;23.39;72.02
74946;HTU21D;63509;45.250;38.102;2023-07-13T04:38:10;23.56;71.84
74946;HTU21D;63509;45.250;38.102;2023-07-13T04:40:37;23.72;71.76
74946;HTU21D;63509;45.250;38.102;2023-07-13T04:43:03;23.90;71.81
74946;HTU21D;63509;45.250;38.102;2023-07-13T04:45:30;24.10;71.66
74946;HTU21D;63509;45.250;38.102;2023-07-13T04:47:57;24.30;71.54
74946;HTU21D;63509;45.250;38.102;2023-07-13T04:50:23;24.53;71.48
74946;HTU21D;63509;45.250;38.102;2023-07-13T04:52:50;24.72;71.23
74946;HTU21D;63509;45.250;38.102;2023-07-13T04:55:17;24.91;70.83
74946;HTU21D;63509;45.250;38.102;2023-07-13T04:57:44;25.07;70.62
74946;HTU21D;63509;45.250;38.102;2023-07-13T05:00:11;25.27;70.56
74946;HTU21D;63509;45.250;38.102;2023-07-13T05:02:39;25.50;70.30
74946;HTU21D;63509;45.250;38.102;2023-07-13T05:05:06;25.75;70.13
74946;HTU21D;63509;45.250;38.102;2023-07-13T05:07:32;25.95;69.83
74946;HTU21D;63509;45.250;38.102;2023-07-13T05:10:02;26.15;69.49
74946;HTU21D;63509;45.250;38.102;2023-07-13T05:12:30;26.36;69.29
74946;HTU21D;63509;45.250;38.102;2023-07-13T05:14:56;26.55;68.91
74946;HTU21D;63509;45.250;38.102;2023-07-13T05:17:22;26.69;68.60
74946;HTU21D;63509;45.250;38.102;2023-07-13T05:19:48;26.83;68.52
74946;HTU21D;63509;45.250;38.102;2023-07-13T05:22:15;27.02;68.38
74946;HTU21D;63509;45.250;38.102;2023-07-13T05:24:41;27.21;68.07
74946;HTU21D;63509;45.250;38.102;2023-07-13T05:27:07;27.40;67.83
74946;HTU21D;63509;45.250;38.102;2023-07-13T05:29:33;27.58;67.60
74946;HTU21D;63509;45.250;38.102;2023-07-13T05:32:00;27.81;67.28
74946;HTU21D;63509;45.250;38.102;2023-07-13T05:34:26;27.99;66.74
74946;HTU21D;63509;45.250;38.102;2023-07-13T05:36:52;28.11;66.33
74946;HTU21D;63509;45.250;38.102;2023-07-13T05:39:19;28.23;66.11
74946;HTU21D;63509;45.250;38.102;2023-07-13T05:41:45;28.30;65.72
74946;HTU21D;63509;45.250;38.102;2023-07-13T05:44:11;28.38;65.53
74946;HTU21D;63509;45.250;38.102;2023-07-13T05:46:37;28.42;65.30
74946;HTU21D;63509;45.250;38.102;2023-07-13T05:49:03;28.50;65.14
74946;HTU21D;63509;45.250;38.102;2023-07-13T05:51:29;28.61;64.93
74946;HTU21D;63509;45.250;38.102;2023-07-13T05:53:56;28.69;64.57
74946;HTU21D;63509;45.250;38.102;2023-07-13T05:56:22;28.73;64.42
74946;HTU21D;63509;45.250;38.102;2023-07-13T05:58:48;28.78;64.24
74946;HTU21D;63509;45.250;38.102;2023-07-13T06:01:15;28.85;64.20
74946;HTU21D;63509;45.250;38.102;2023-07-13T06:03:42;28.98;63.94
74946;HTU21D;63509;45.250;38.102;2023-07-13T06:06:09;29.11;63.59
74946;HTU21D;63509;45.250;38.102;2023-07-13T06:08:37;29.16;63.45
74946;HTU21D;63509;45.250;38.102;2023-07-13T06:11:05;29.23;63.24
74946;HTU21D;63509;45.250;38.102;2023-07-13T06:13:32;29.33;62.95
74946;HTU21D;63509;45.250;38.102;2023-07-13T06:16:00;29.39;62.65
74946;HTU21D;63509;45.250;38.102;2023-07-13T06:18:26;29.44;62.42
74946;HTU21D;63509;45.250;38.102;2023-07-13T06:20:52;29.52;62.34
74946;HTU21D;63509;45.250;38.102;2023-07-13T06:23:18;29.63;62.05
74946;HTU21D;63509;45.250;38.102;2023-07-13T06:25:44;29.72;61.67
74946;HTU21D;63509;45.250;38.102;2023-07-13T06:28:11;29.77;61.52
74946;HTU21D;63509;45.250;38.102;2023-07-13T06:30:38;29.86;61.37
74946;HTU21D;63509;45.250;38.102;2023-07-13T06:33:05;29.97;61.14
74946;HTU21D;63509;45.250;38.102;2023-07-13T06:35:31;30.08;60.89
74946;HTU21D;63509;45.250;38.102;2023-07-13T06:37:57;30.31;60.98
74946;HTU21D;63509;45.250;38.102;2023-07-13T06:40:24;30.68;60.74
74946;HTU21D;63509;45.250;38.102;2023-07-13T06:42:50;31.04;60.15
74946;HTU21D;63509;45.250;38.102;2023-07-13T06:45:16;31.35;59.82
74946;HTU21D;63509;45.250;38.102;2023-07-13T06:47:42;31.67;59.32
74946;HTU21D;63509;45.250;38.102;2023-07-13T06:50:08;31.92;58.93
74946;HTU21D;63509;45.250;38.102;2023-07-13T06:52:35;32.23;58.54
74946;HTU21D;63509;45.250;38.102;2023-07-13T06:55:01;32.46;58.15
74946;HTU21D;63509;45.250;38.102;2023-07-13T06:57:27;32.71;57.57
74946;HTU21D;63509;45.250;38.102;2023-07-13T06:59:53;32.90;57.08
74946;HTU21D;63509;45.250;38.102;2023-07-13T07:02:19;32.89;56.48
74946;HTU21D;63509;45.250;38.102;2023-07-13T07:04:46;32.68;56.17
74946;HTU21D;63509;45.250;38.102;2023-07-13T07:07:12;32.50;56.29
74946;HTU21D;63509;45.250;38.102;2023-07-13T07:09:38;32.47;56.58
74946;HTU21D;63509;45.250;38.102;2023-07-13T07:12:04;32.53;56.40
74946;HTU21D;63509;45.250;38.102;2023-07-13T07:14:31;32.58;56.23
74946;HTU21D;63509;45.250;38.102;2023-07-13T07:16:57;32.55;55.86
74946;HTU21D;63509;45.250;38.102;2023-07-13T07:19:24;32.41;55.65
74946;HTU21D;63509;45.250;38.102;2023-07-13T07:21:50;32.17;55.49
74946;HTU21D;63509;45.250;38.102;2023-07-13T07:24:16;31.94;55.65
74946;HTU21D;63509;45.250;38.102;2023-07-13T07:26:42;31.97;56.22
74946;HTU21D;63509;45.250;38.102;2023-07-13T07:29:09;32.24;56.00
74946;HTU21D;63509;45.250;38.102;2023-07-13T07:31:35;32.55;55.84
74946;HTU21D;63509;45.250;38.102;2023-07-13T07:34:03;32.85;55.35
74946;HTU21D;63509;45.250;38.102;2023-07-13T07:36:29;33.12;54.94
74946;HTU21D;63509;45.250;38.102;2023-07-13T07:38:55;33.37;54.49
74946;HTU21D;63509;45.250;38.102;2023-07-13T07:41:21;33.51;53.91
74946;HTU21D;63509;45.250;38.102;2023-07-13T07:43:47;33.61;53.54
74946;HTU21D;63509;45.250;38.102;2023-07-13T07:46:14;33.72;53.35
74946;HTU21D;63509;45.250;38.102;2023-07-13T07:48:40;33.85;53.00
74946;HTU21D;63509;45.250;38.102;2023-07-13T07:51:06;34.00;52.74
74946;HTU21D;63509;45.250;38.102;2023-07-13T07:53:32;34.18;52.54
74946;HTU21D;63509;45.250;38.102;2023-07-13T07:55:58;34.42;52.32
74946;HTU21D;63509;45.250;38.102;2023-07-13T07:58:24;34.63;51.97
74946;HTU21D;63509;45.250;38.102;2023-07-13T08:00:51;34.80;51.73
74946;HTU21D;63509;45.250;38.102;2023-07-13T08:03:17;34.98;51.33
74946;HTU21D;63509;45.250;38.102;2023-07-13T08:05:43;35.10;50.92
74946;HTU21D;63509;45.250;38.102;2023-07-13T08:08:09;35.20;50.70
74946;HTU21D;63509;45.250;38.102;2023-07-13T08:10:36;35.33;50.44
74946;HTU21D;63509;45.250;38.102;2023-07-13T08:13:03;35.44;50.15
74946;HTU21D;63509;45.250;38.102;2023-07-13T08:15:29;35.50;49.76
74946;HTU21D;63509;45.250;38.102;2023-07-13T08:17:55;35.41;49.48
74946;HTU21D;63509;45.250;38.102;2023-07-13T08:20:21;35.25;49.50
74946;HTU21D;63509;45.250;38.102;2023-07-13T08:22:47;35.13;49.59
74946;HTU21D;63509;45.250;38.102;2023-07-13T08:25:13;35.21;49.57
74946;HTU21D;63509;45.250;38.102;2023-07-13T08:27:40;35.25;49.27
74946;HTU21D;63509;45.250;38.102;2023-07-13T08:30:06;35.20;49.03
74946;HTU21D;63509;45.250;38.102;2023-07-13T08:32:34;35.13;49.05
74946;HTU21D;63509;45.250;38.102;2023-07-13T08:35:00;35.22;48.94
74946;HTU21D;63509;45.250;38.102;2023-07-13T08:37:26;35.33;48.62
74946;HTU21D;63509;45.250;38.102;2023-07-13T08:39:52;35.27;48.45
74946;HTU21D;63509;45.250;38.102;2023-07-13T08:42:33;35.23;48.60
74946;HTU21D;63509;45.250;38.102;2023-07-13T08:47:39;35.28;48.28
74946;HTU21D;63509;45.250;38.102;2023-07-13T08:50:11;35.29;48.23
74946;HTU21D;63509;45.250;38.102;2023-07-13T08:52:39;35.29;47.97
74946;HTU21D;63509;45.250;38.102;2023-07-13T08:55:17;35.43;48.12
74946;HTU21D;63509;45.250;38.102;2023-07-13T08:57:48;35.62;47.76
74946;HTU21D;63509;45.250;38.102;2023-07-13T09:00:16;35.80;47.25
74946;HTU21D;63509;45.250;38.102;2023-07-13T09:02:48;35.95;47.31
74946;HTU21D;63509;45.250;38.102;2023-07-13T09:05:33;36.06;47.18
74946;HTU21D;63509;45.250;38.102;2023-07-13T09:08:49;36.22;46.78
74946;HTU21D;63509;45.250;38.102;2023-07-13T09:11:05;36.31;46.63
74946;HTU21D;63509;45.250;38.102;2023-07-13T09:14:29;36.51;46.40
74946;HTU21D;63509;45.250;38.102;2023-07-13T09:17:01;36.37;46.07
74946;HTU21D;63509;45.250;38.102;2023-07-13T09:19:30;36.49;46.09
74946;HTU21D;63509;45.250;38.102;2023-07-13T09:21:59;36.75;45.76
74946;HTU21D;63509;45.250;38.102;2023-07-13T09:25:02;37.03;45.67
74946;HTU21D;63509;45.250;38.102;2023-07-13T09:27:40;37.07;45.31
74946;HTU21D;63509;45.250;38.102;2023-07-13T09:32:47;37.29;44.84
74946;HTU21D;63509;45.250;38.102;2023-07-13T09:35:19;37.47;44.42
74946;HTU21D;63509;45.250;38.102;2023-07-13T09:37:45;37.54;43.57
74946;HTU21D;63509;45.250;38.102;2023-07-13T09:40:28;37.21;43.72
74946;HTU21D;63509;45.250;38.102;2023-07-13T09:42:56;36.75;43.77
74946;HTU21D;63509;45.250;38.102;2023-07-13T09:45:29;36.52;45.25
74946;HTU21D;63509;45.250;38.102;2023-07-13T09:48:06;36.51;45.01
74946;HTU21D;63509;45.250;38.102;2023-07-13T09:50:34;36.42;44.38
74946;HTU21D;63509;45.250;38.102;2023-07-13T09:53:01;36.31;44.30
74946;HTU21D;63509;45.250;38.102;2023-07-13T09:55:36;36.26;44.40
74946;HTU21D;63509;45.250;38.102;2023-07-13T10:00:37;36.01;44.09
74946;HTU21D;63509;45.250;38.102;2023-07-13T10:03:21;36.13;44.37
74946;HTU21D;63509;45.250;38.102;2023-07-13T10:05:50;36.26;44.12
74946;HTU21D;63509;45.250;38.102;2023-07-13T10:08:28;36.45;44.00
74946;HTU21D;63509;45.250;38.102;2023-07-13T10:11:11;36.61;43.90
74946;HTU21D;63509;45.250;38.102;2023-07-13T10:14:28;36.71;43.74
74946;HTU21D;63509;45.250;38.102;2023-07-13T10:16:32;36.80;43.40
74946;HTU21D;63509;45.250;38.102;2023-07-13T10:19:03;36.86;42.99
74946;HTU21D;63509;45.250;38.102;2023-07-13T10:21:43;36.78;43.06
74946;HTU21D;63509;45.250;38.102;2023-07-13T10:24:16;36.68;43.05
74946;HTU21D;63509;45.250;38.102;2023-07-13T10:26:51;36.69;43.08
74946;HTU21D;63509;45.250;38.102;2023-07-13T10:29:20;36.76;42.80
74946;HTU21D;63509;45.250;38.102;2023-07-13T10:31:48;36.89;42.56
74946;HTU21D;63509;45.250;38.102;2023-07-13T10:34:14;36.95;42.19
74946;HTU21D;63509;45.250;38.102;2023-07-13T10:36:45;36.90;42.27
74946;HTU21D;63509;45.250;38.102;2023-07-13T10:39:22;36.82;42.32
74946;HTU21D;63509;45.250;38.102;2023-07-13T10:41:53;36.82;42.25
74946;HTU21D;63509;45.250;38.102;2023-07-13T10:44:26;36.86;42.24
74946;HTU21D;63509;45.250;38.102;2023-07-13T10:47:11;37.04;42.26
74946;HTU21D;63509;45.250;38.102;2023-07-13T10:49:40;37.19;41.98
74946;HTU21D;63509;45.250;38.102;2023-07-13T10:52:40;37.35;41.81
74946;HTU21D;63509;45.250;38.102;2023-07-13T10:55:32;37.20;41.90
74946;HTU21D;63509;45.250;38.102;2023-07-13T11:03:50;37.02;42.03
74946;HTU21D;63509;45.250;38.102;2023-07-13T11:09:35;37.18;41.72
74946;HTU21D;63509;45.250;38.102;2023-07-13T11:12:27;36.97;41.68
74946;HTU21D;63509;45.250;38.102;2023-07-13T11:22:50;36.04;42.00
74946;HTU21D;63509;45.250;38.102;2023-07-13T11:30:38;35.22;42.43
74946;HTU21D;63509;45.250;38.102;2023-07-13T11:34:14;35.13;42.88
74946;HTU21D;63509;45.250;38.102;2023-07-13T11:36:19;35.10;43.10
74946;HTU21D;63509;45.250;38.102;2023-07-13T11:39:13;35.14;42.98
74946;HTU21D;63509;45.250;38.102;2023-07-13T11:41:50;35.06;43.11
74946;HTU21D;63509;45.250;38.102;2023-07-13T11:44:20;35.13;43.02
74946;HTU21D;63509;45.250;38.102;2023-07-13T11:46:52;35.30;42.87
74946;HTU21D;63509;45.250;38.102;2023-07-13T11:49:21;35.42;42.65
74946;HTU21D;63509;45.250;38.102;2023-07-13T11:51:48;35.47;42.39
74946;HTU21D;63509;45.250;38.102;2023-07-13T11:54:24;35.40;42.24
74946;HTU21D;63509;45.250;38.102;2023-07-13T11:57:01;35.31;42.36
74946;HTU21D;63509;45.250;38.102;2023-07-13T11:59:30;35.20;42.45
74946;HTU21D;63509;45.250;38.102;2023-07-13T12:01:58;35.13;42.56
74946;HTU21D;63509;45.250;38.102;2023-07-13T12:04:25;35.11;42.54
74946;HTU21D;63509;45.250;38.102;2023-07-13T12:07:17;35.18;42.72
74946;HTU21D;63509;45.250;38.102;2023-07-13T12:09:43;35.22;42.64
74946;HTU21D;63509;45.250;38.102;2023-07-13T12:12:11;35.28;42.52
74946;HTU21D;63509;45.250;38.102;2023-07-13T12:14:38;35.28;42.36
74946;HTU21D;63509;45.250;38.102;2023-07-13T12:17:20;35.25;42.39
74946;HTU21D;63509;45.250;38.102;2023-07-13T12:19:48;35.08;42.35
74946;HTU21D;63509;45.250;38.102;2023-07-13T12:22:14;34.89;42.98
74946;HTU21D;63509;45.250;38.102;2023-07-13T12:24:42;34.64;42.92
74946;HTU21D;63509;45.250;38.102;2023-07-13T12:27:24;34.53;43.12
74946;HTU21D;63509;45.250;38.102;2023-07-13T12:29:52;34.42;43.07
74946;HTU21D;63509;45.250;38.102;2023-07-13T12:32:19;34.31;43.06
74946;HTU21D;63509;45.250;38.102;2023-07-13T12:35:03;34.15;43.22
74946;HTU21D;63509;45.250;38.102;2023-07-13T12:37:34;33.91;43.42
74946;HTU21D;63509;45.250;38.102;2023-07-13T12:40:01;33.72;43.45
74946;HTU21D;63509;45.250;38.102;2023-07-13T12:42:32;33.49;43.64
74946;HTU21D;63509;45.250;38.102;2023-07-13T12:45:01;33.31;43.85
74946;HTU21D;63509;45.250;38.102;2023-07-13T12:47:28;33.17;44.11
74946;HTU21D;63509;45.250;38.102;2023-07-13T12:49:58;33.16;44.28
74946;HTU21D;63509;45.250;38.102;2023-07-13T12:52:31;33.21;44.23
74946;HTU21D;63509;45.250;38.102;2023-07-13T12:55:12;33.14;44.25
74946;HTU21D;63509;45.250;38.102;2023-07-13T13:00:26;33.01;44.41
74946;HTU21D;63509;45.250;38.102;2023-07-13T13:02:56;32.96;44.36
74946;HTU21D;63509;45.250;38.102;2023-07-13T13:05:26;32.93;44.34
74946;HTU21D;63509;45.250;38.102;2023-07-13T13:07:52;32.84;44.27
74946;HTU21D;63509;45.250;38.102;2023-07-13T13:10:18;32.72;44.33
74946;HTU21D;63509;45.250;38.102;2023-07-13T13:12:47;32.63;44.47
74946;HTU21D;63509;45.250;38.102;2023-07-13T13:15:13;32.58;44.58
74946;HTU21D;63509;45.250;38.102;2023-07-13T13:17:40;32.56;44.70
74946;HTU21D;63509;45.250;38.102;2023-07-13T13:20:24;32.67;44.75
74946;HTU21D;63509;45.250;38.102;2023-07-13T13:22:52;32.72;44.65
74946;HTU21D;63509;45.250;38.102;2023-07-13T13:25:18;32.82;44.48
74946;HTU21D;63509;45.250;38.102;2023-07-13T13:27:46;32.87;44.48
74946;HTU21D;63509;45.250;38.102;2023-07-13T13:30:14;32.92;44.35
74946;HTU21D;63509;45.250;38.102;2023-07-13T13:32:43;32.90;44.30
74946;HTU21D;63509;45.250;38.102;2023-07-13T13:35:14;32.91;44.35
74946;HTU21D;63509;45.250;38.102;2023-07-13T13:37:41;32.92;44.25
74946;HTU21D;63509;45.250;38.102;2023-07-13T13:40:28;32.93;44.25
74946;HTU21D;63509;45.250;38.102;2023-07-13T13:42:54;32.84;44.24
74946;HTU21D;63509;45.250;38.102;2023-07-13T13:45:21;32.78;44.22
74946;HTU21D;63509;45.250;38.102;2023-07-13T13:47:47;32.71;44.13
74946;HTU21D;63509;45.250;38.102;2023-07-13T13:50:19;32.57;44.23
74946;HTU21D;63509;45.250;38.102;2023-07-13T13:52:47;32.39;44.29
74946;HTU21D;63509;45.250;38.102;2023-07-13T13:55:14;32.22;44.46
74946;HTU21D;63509;45.250;38.102;2023-07-13T13:57:41;32.01;44.69
74946;HTU21D;63509;45.250;38.102;2023-07-13T14:00:09;31.88;44.90
74946;HTU21D;63509;45.250;38.102;2023-07-13T14:02:42;31.78;45.02
74946;HTU21D;63509;45.250;38.102;2023-07-13T14:05:14;31.70;45.18
74946;HTU21D;63509;45.250;38.102;2023-07-13T14:07:41;31.64;45.31
74946;HTU21D;63509;45.250;38.102;2023-07-13T14:10:14;31.61;45.38
74946;HTU21D;63509;45.250;38.102;2023-07-13T14:12:42;31.51;45.45
74946;HTU21D;63509;45.250;38.102;2023-07-13T14:15:24;31.42;45.62
74946;HTU21D;63509;45.250;38.102;2023-07-13T14:17:50;31.33;45.89
74946;HTU21D;63509;45.250;38.102;2023-07-13T14:20:18;31.27;45.96
74946;HTU21D;63509;45.250;38.102;2023-07-13T14:22:46;31.24;45.93
74946;HTU21D;63509;45.250;38.102;2023-07-13T14:25:13;31.19;45.98
74946;HTU21D;63509;45.250;38.102;2023-07-13T14:27:41;31.12;46.11
74946;HTU21D;63509;45.250;38.102;2023-07-13T14:30:20;31.08;46.15
74946;HTU21D;63509;45.250;38.102;2023-07-13T14:32:46;31.01;46.32
74946;HTU21D;63509;45.250;38.102;2023-07-13T14:35:14;30.98;46.39
74946;HTU21D;63509;45.250;38.102;2023-07-13T14:37:41;30.96;46.41
74946;HTU21D;63509;45.250;38.102;2023-07-13T14:40:21;30.98;46.41
74946;HTU21D;63509;45.250;38.102;2023-07-13T14:42:49;31.00;46.40
74946;HTU21D;63509;45.250;38.102;2023-07-13T14:45:18;31.07;46.35
74946;HTU21D;63509;45.250;38.102;2023-07-13T14:47:45;31.09;46.30
74946;HTU21D;63509;45.250;38.102;2023-07-13T14:50:20;31.14;46.25
74946;HTU21D;63509;45.250;38.102;2023-07-13T14:52:47;31.20;46.22
74946;HTU21D;63509;45.250;38.102;2023-07-13T14:55:17;31.26;46.21
74946;HTU21D;63509;45.250;38.102;2023-07-13T14:57:44;31.33;46.18
74946;HTU21D;63509;45.250;38.102;2023-07-13T15:00:16;31.37;46.17
74946;HTU21D;63509;45.250;38.102;2023-07-13T15:02:46;31.42;46.15
74946;HTU21D;63509;45.250;38.102;2023-07-13T15:05:19;31.45;46.12
74946;HTU21D;63509;45.250;38.102;2023-07-13T15:07:46;31.50;46.09
74946;HTU21D;63509;45.250;38.102;2023-07-13T15:10:18;31.49;46.04
74946;HTU21D;63509;45.250;38.102;2023-07-13T15:12:45;31.43;46.05
74946;HTU21D;63509;45.250;38.102;2023-07-13T15:15:12;31.38;46.14
74946;HTU21D;63509;45.250;38.102;2023-07-13T15:17:44;31.35;46.15
74946;HTU21D;63509;45.250;38.102;2023-07-13T15:22:52;31.19;46.35
74946;HTU21D;63509;45.250;38.102;2023-07-13T15:25:20;31.13;46.43
74946;HTU21D;63509;45.250;38.102;2023-07-13T15:27:47;31.07;46.50
74946;HTU21D;63509;45.250;38.102;2023-07-13T15:30:14;31.01;46.56
74946;HTU21D;63509;45.250;38.102;2023-07-13T15:32:45;30.93;46.63
74946;HTU21D;63509;45.250;38.102;2023-07-13T15:35:18;30.86;46.71
74946;HTU21D;63509;45.250;38.102;2023-07-13T15:37:48;30.81;46.78
74946;HTU21D;63509;45.250;38.102;2023-07-13T15:40:16;30.77;46.87
74946;HTU21D;63509;45.250;38.102;2023-07-13T15:42:44;30.69;46.91
74946;HTU21D;63509;45.250;38.102;2023-07-13T15:45:24;30.63;46.99
74946;HTU21D;63509;45.250;38.102;2023-07-13T15:47:54;30.54;47.15
74946;HTU21D;63509;45.250;38.102;2023-07-13T15:50:22;30.49;47.19
74946;HTU21D;63509;45.250;38.102;2023-07-13T15:52:52;30.42;47.28